createdAt,value
2022-12-01T00:00:17.287Z,18.40
2022-12-01T00:02:46.553Z,18.30
2022-12-01T00:05:14.462Z,18.30
2022-12-01T00:07:42.232Z,18.40
2022-12-01T00:10:24.764Z,18.30
2022-12-01T00:12:52.716Z,18.30
2022-12-01T00:15:20.485Z,18.30
2022-12-01T00:17:49.817Z,18.30
2022-12-01T00:20:18.049Z,18.30
2022-12-01T00:22:45.918Z,18.30
2022-12-01T00:25:14.263Z,18.30
2022-12-01T00:27:42.013Z,18.30
2022-12-01T00:30:11.997Z,18.30
2022-12-01T00:32:39.750Z,18.30
2022-12-01T00:35:09.218Z,18.30
2022-12-01T00:37:37.201Z,18.30
2022-12-01T00:40:05.606Z,18.30
2022-12-01T00:42:33.395Z,18.30
2022-12-01T00:45:01.233Z,18.30
2022-12-01T00:47:29.022Z,18.30
2022-12-01T00:49:56.853Z,18.30
2022-12-01T00:52:25.907Z,18.30
2022-12-01T00:54:53.673Z,18.30
2022-12-01T00:57:21.414Z,18.30
2022-12-01T00:59:49.430Z,18.30
2022-12-01T01:02:17.479Z,18.30
2022-12-01T01:04:46.411Z,18.30
2022-12-01T01:07:14.115Z,18.30
2022-12-01T01:09:43.271Z,18.30
2022-12-01T01:12:11.028Z,18.40
2022-12-01T01:14:38.927Z,18.40
2022-12-01T01:17:06.834Z,18.40
2022-12-01T01:19:34.645Z,18.40
2022-12-01T01:22:02.395Z,18.40
2022-12-01T01:24:30.139Z,18.40
2022-12-01T01:26:59.280Z,18.40
2022-12-01T01:29:27.042Z,18.40
2022-12-01T01:31:54.801Z,18.40
2022-12-01T01:34:22.533Z,18.40
2022-12-01T01:36:50.406Z,18.40
2022-12-01T01:39:18.133Z,18.50
2022-12-01T01:41:45.895Z,18.40
2022-12-01T01:44:32.388Z,18.40
2022-12-01T01:47:01.452Z,18.40
2022-12-01T01:49:29.235Z,18.40
2022-12-01T01:51:57.623Z,18.50
2022-12-01T01:54:27.577Z,18.50
2022-12-01T01:56:55.987Z,18.50
2022-12-01T01:59:26.247Z,18.50
2022-12-01T02:01:57.882Z,18.50
2022-12-01T02:04:27.627Z,18.50
2022-12-01T02:06:55.482Z,18.50
2022-12-01T02:09:23.269Z,18.60
2022-12-01T02:12:04.501Z,18.60
2022-12-01T02:14:42.009Z,18.60
2022-12-01T02:17:13.642Z,18.60
2022-12-01T02:19:54.859Z,18.60
2022-12-01T02:22:26.906Z,18.60
2022-12-01T02:25:12.549Z,18.60
2022-12-01T02:27:53.218Z,18.70
2022-12-01T02:30:29.304Z,18.70
2022-12-01T02:33:02.829Z,18.70
2022-12-01T02:35:33.840Z,18.70
2022-12-01T02:38:08.997Z,18.70
2022-12-01T02:40:41.017Z,18.80
2022-12-01T02:43:11.003Z,18.80
2022-12-01T02:45:44.181Z,18.80
2022-12-01T02:48:14.122Z,18.80
2022-12-01T02:50:42.078Z,18.80
2022-12-01T02:53:11.377Z,18.80
2022-12-01T02:55:47.392Z,18.90
2022-12-01T02:58:15.558Z,18.90
2022-12-01T03:00:49.479Z,18.90
2022-12-01T03:03:32.671Z,18.90
2022-12-01T03:06:09.060Z,18.90
2022-12-01T03:08:46.056Z,18.90
2022-12-01T03:11:27.134Z,19.00
2022-12-01T03:13:59.037Z,19.00
2022-12-01T03:16:32.907Z,19.00
2022-12-01T03:19:02.871Z,19.00
2022-12-01T03:21:33.762Z,19.10
2022-12-01T03:24:02.952Z,19.10
2022-12-01T03:26:32.311Z,19.10
2022-12-01T03:29:04.152Z,19.10
2022-12-01T03:31:34.561Z,19.10
2022-12-01T03:34:05.546Z,19.10
2022-12-01T03:36:35.322Z,19.20
2022-12-01T03:39:04.807Z,19.20
2022-12-01T03:41:36.502Z,19.20
2022-12-01T03:44:08.723Z,19.20
2022-12-01T03:46:41.253Z,19.20
2022-12-01T03:49:09.861Z,19.30
2022-12-01T03:51:43.248Z,19.30
2022-12-01T03:54:13.116Z,19.30
2022-12-01T03:56:47.836Z,19.30
2022-12-01T03:59:17.192Z,19.30
2022-12-01T04:01:46.587Z,19.30
2022-12-01T04:04:15.607Z,19.30
2022-12-01T08:34:08.695Z,19.70
2022-12-01T08:36:37.214Z,19.70
2022-12-01T08:39:05.343Z,19.70
